sensor_id;sensor_type;location;lat;lon;timestamp;temperature;humidity
31809;DHT22;18379;48.208;-1.518;2023-04-01T00:03:08;10.60;99.90
31809;DHT22;18379;48.208;-1.518;2023-04-01T00:08:08;10.70;99.90
31809;DHT22;18379;48.208;-1.518;2023-04-01T00:13:09;10.70;99.90
31809;DHT22;18379;48.208;-1.518;2023-04-01T00:18:11;10.60;99.90
31809;DHT22;18379;48.208;-1.518;2023-04-01T00:23:13;10.50;99.90
31809;DHT22;18379;48.208;-1.518;2023-04-01T00:28:17;10.50;99.90
31809;DHT22;18379;48.208;-1.518;2023-04-01T00:33:18;10.50;99.90
31809;DHT22;18379;48.208;-1.518;2023-04-01T00:38:18;10.50;99.90
31809;DHT22;18379;48.208;-1.518;2023-04-01T00:43:20;10.50;99.90
31809;DHT22;18379;48.208;-1.518;2023-04-01T00:48:24;10.50;99.90
31809;DHT22;18379;48.208;-1.518;2023-04-01T00:53:28;10.60;99.90
31809;DHT22;18379;48.208;-1.518;2023-04-01T00:58:32;10.40;99.90
31809;DHT22;18379;48.208;-1.518;2023-04-01T01:03:35;10.40;99.90
31809;DHT22;18379;48.208;-1.518;2023-04-01T01:08:43;10.30;99.90
31809;DHT22;18379;48.208;-1.518;2023-04-01T01:13:58;10.30;99.90
31809;DHT22;18379;48.208;-1.518;2023-04-01T01:24:40;10.10;99.90
31809;DHT22;18379;48.208;-1.518;2023-04-01T01:35:20;10.10;99.90
31809;DHT22;18379;48.208;-1.518;2023-04-01T01:40:22;10.10;99.90
31809;DHT22;18379;48.208;-1.518;2023-04-01T01:45:25;10.10;99.90
31809;DHT22;18379;48.208;-1.518;2023-04-01T01:50:27;10.00;99.90
31809;DHT22;18379;48.208;-1.518;2023-04-01T02:01:01;10.00;99.90
31809;DHT22;18379;48.208;-1.518;2023-04-01T02:06:07;10.00;99.90
31809;DHT22;18379;48.208;-1.518;2023-04-01T02:11:12;9.90;99.90
31809;DHT22;18379;48.208;-1.518;2023-04-01T02:16:19;9.90;99.90
31809;DHT22;18379;48.208;-1.518;2023-04-01T02:21:24;9.90;99.90
31809;DHT22;18379;48.208;-1.518;2023-04-01T02:26:26;9.90;99.90
31809;DHT22;18379;48.208;-1.518;2023-04-01T02:31:27;9.90;99.90
31809;DHT22;18379;48.208;-1.518;2023-04-01T02:36:29;9.90;99.90
31809;DHT22;18379;48.208;-1.518;2023-04-01T02:41:30;9.90;99.90
31809;DHT22;18379;48.208;-1.518;2023-04-01T02:46:31;10.00;99.90
31809;DHT22;18379;48.208;-1.518;2023-04-01T02:51:32;9.90;99.90
31809;DHT22;18379;48.208;-1.518;2023-04-01T02:56:33;9.90;99.90
31809;DHT22;18379;48.208;-1.518;2023-04-01T03:01:34;9.90;99.90
31809;DHT22;18379;48.208;-1.518;2023-04-01T03:06:35;9.80;99.90
31809;DHT22;18379;48.208;-1.518;2023-04-01T03:11:36;9.90;99.90
31809;DHT22;18379;48.208;-1.518;2023-04-01T03:16:36;9.90;99.90
31809;DHT22;18379;48.208;-1.518;2023-04-01T03:21:37;9.90;99.90
31809;DHT22;18379;48.208;-1.518;2023-04-01T03:26:38;9.90;99.90
31809;DHT22;18379;48.208;-1.518;2023-04-01T03:31:39;9.90;99.90
31809;DHT22;18379;48.208;-1.518;2023-04-01T03:36:40;9.80;99.90
31809;DHT22;18379;48.208;-1.518;2023-04-01T03:41:40;9.70;99.90
31809;DHT22;18379;48.208;-1.518;2023-04-01T03:46:41;9.50;99.90
31809;DHT22;18379;48.208;-1.518;2023-04-01T03:51:43;9.50;99.90
31809;DHT22;18379;48.208;-1.518;2023-04-01T03:56:44;9.60;99.90
31809;DHT22;18379;48.208;-1.518;2023-04-01T04:01:46;9.50;99.90
31809;DHT22;18379;48.208;-1.518;2023-04-01T04:06:48;9.60;99.90
31809;DHT22;18379;48.208;-1.518;2023-04-01T04:11:49;9.60;99.90
31809;DHT22;18379;48.208;-1.518;2023-04-01T04:16:50;9.60;99.90
31809;DHT22;18379;48.208;-1.518;2023-04-01T04:21:51;9.60;99.90
31809;DHT22;18379;48.208;-1.518;2023-04-01T04:26:52;9.70;99.90
31809;DHT22;18379;48.208;-1.518;2023-04-01T04:31:53;9.70;99.90
31809;DHT22;18379;48.208;-1.518;2023-04-01T04:36:53;9.70;99.90
31809;DHT22;18379;48.208;-1.518;2023-04-01T04:41:54;9.80;99.90
31809;DHT22;18379;48.208;-1.518;2023-04-01T04:46:55;9.80;99.90
31809;DHT22;18379;48.208;-1.518;2023-04-01T04:51:56;9.80;99.90
31809;DHT22;18379;48.208;-1.518;2023-04-01T04:56:56;9.80;99.90
31809;DHT22;18379;48.208;-1.518;2023-04-01T05:01:57;9.90;99.90
31809;DHT22;18379;48.208;-1.518;2023-04-01T05:06:58;9.80;99.90
31809;DHT22;18379;48.208;-1.518;2023-04-01T05:11:59;9.60;99.90
31809;DHT22;18379;48.208;-1.518;2023-04-01T05:17:00;9.50;99.90
31809;DHT22;18379;48.208;-1.518;2023-04-01T05:22:00;9.40;99.90
31809;DHT22;18379;48.208;-1.518;2023-04-01T05:27:02;9.40;99.90
31809;DHT22;18379;48.208;-1.518;2023-04-01T05:32:03;9.40;99.90
31809;DHT22;18379;48.208;-1.518;2023-04-01T05:37:04;9.50;99.90
31809;DHT22;18379;48.208;-1.518;2023-04-01T05:42:08;9.50;99.90
31809;DHT22;18379;48.208;-1.518;2023-04-01T05:47:09;9.50;99.90
31809;DHT22;18379;48.208;-1.518;2023-04-01T05:52:09;9.30;99.90
31809;DHT22;18379;48.208;-1.518;2023-04-01T05:57:10;9.30;99.90
31809;DHT22;18379;48.208;-1.518;2023-04-01T06:02:11;9.30;99.90
31809;DHT22;18379;48.208;-1.518;2023-04-01T06:07:14;9.20;99.90
31809;DHT22;18379;48.208;-1.518;2023-04-01T06:29:26;9.40;99.90
31809;DHT22;18379;48.208;-1.518;2023-04-01T06:39:35;9.50;99.90
31809;DHT22;18379;48.208;-1.518;2023-04-01T06:45:06;9.60;99.90
31809;DHT22;18379;48.208;-1.518;2023-04-01T06:50:30;9.60;99.90
31809;DHT22;18379;48.208;-1.518;2023-04-01T06:55:48;9.70;99.90
31809;DHT22;18379;48.208;-1.518;2023-04-01T07:00:56;9.70;99.90
31809;DHT22;18379;48.208;-1.518;2023-04-01T07:06:01;9.70;99.90
31809;DHT22;18379;48.208;-1.518;2023-04-01T07:11:05;9.80;99.90
31809;DHT22;18379;48.208;-1.518;2023-04-01T07:16:19;9.90;99.90
31809;DHT22;18379;48.208;-1.518;2023-04-01T07:21:26;10.10;99.90
31809;DHT22;18379;48.208;-1.518;2023-04-01T07:26:29;10.20;99.90
31809;DHT22;18379;48.208;-1.518;2023-04-01T07:36:50;10.20;99.90
31809;DHT22;18379;48.208;-1.518;2023-04-01T07:41:59;10.30;99.90
31809;DHT22;18379;48.208;-1.518;2023-04-01T07:47:30;10.60;99.90
31809;DHT22;18379;48.208;-1.518;2023-04-01T07:57:52;10.80;99.90
31809;DHT22;18379;48.208;-1.518;2023-04-01T08:25:02;11.30;99.90
31809;DHT22;18379;48.208;-1.518;2023-04-01T08:30:20;11.50;99.90
31809;DHT22;18379;48.208;-1.518;2023-04-01T08:35:31;11.70;99.90
31809;DHT22;18379;48.208;-1.518;2023-04-01T08:56:59;11.70;99.90
31809;DHT22;18379;48.208;-1.518;2023-04-01T09:02:25;11.80;99.90
31809;DHT22;18379;48.208;-1.518;2023-04-01T09:39:37;12.80;99.90
31809;DHT22;18379;48.208;-1.518;2023-04-01T09:45:05;13.10;99.90
31809;DHT22;18379;48.208;-1.518;2023-04-01T09:56:14;12.60;99.90
31809;DHT22;18379;48.208;-1.518;2023-04-01T11:06:10;13.40;99.90
31809;DHT22;18379;48.208;-1.518;2023-04-01T11:38:31;12.40;99.90
31809;DHT22;18379;48.208;-1.518;2023-04-01T11:44:21;13.10;99.90
31809;DHT22;18379;48.208;-1.518;2023-04-01T11:55:27;13.00;99.90
31809;DHT22;18379;48.208;-1.518;2023-04-01T12:06:11;11.90;99.90
31809;DHT22;18379;48.208;-1.518;2023-04-01T12:11:44;12.70;99.90
31809;DHT22;18379;48.208;-1.518;2023-04-01T12:17:15;12.90;99.90
31809;DHT22;18379;48.208;-1.518;2023-04-01T12:22:38;13.40;99.90
31809;DHT22;18379;48.208;-1.518;2023-04-01T12:28:08;13.30;99.90
31809;DHT22;18379;48.208;-1.518;2023-04-01T12:33:40;12.20;99.90
31809;DHT22;18379;48.208;-1.518;2023-04-01T12:39:22;12.00;99.90
31809;DHT22;18379;48.208;-1.518;2023-04-01T13:12:16;13.70;99.90
31809;DHT22;18379;48.208;-1.518;2023-04-01T13:33:42;12.00;99.90
31809;DHT22;18379;48.208;-1.518;2023-04-01T13:39:08;13.30;99.90
31809;DHT22;18379;48.208;-1.518;2023-04-01T13:44:34;14.10;99.90
31809;DHT22;18379;48.208;-1.518;2023-04-01T13:55:19;15.40;99.90
31809;DHT22;18379;48.208;-1.518;2023-04-01T14:06:16;13.80;99.90
31809;DHT22;18379;48.208;-1.518;2023-04-01T14:11:32;13.30;99.90
31809;DHT22;18379;48.208;-1.518;2023-04-01T14:22:25;14.40;99.90
31809;DHT22;18379;48.208;-1.518;2023-04-01T14:33:42;15.40;99.90
31809;DHT22;18379;48.208;-1.518;2023-04-01T14:39:00;16.20;99.90
31809;DHT22;18379;48.208;-1.518;2023-04-01T14:44:35;15.20;99.90
31809;DHT22;18379;48.208;-1.518;2023-04-01T14:49:43;15.30;99.90
31809;DHT22;18379;48.208;-1.518;2023-04-01T14:54:46;14.40;99.90
31809;DHT22;18379;48.208;-1.518;2023-04-01T14:59:51;13.60;99.90
31809;DHT22;18379;48.208;-1.518;2023-04-01T15:22:06;15.80;99.90
31809;DHT22;18379;48.208;-1.518;2023-04-01T15:37:08;16.80;99.90
31809;DHT22;18379;48.208;-1.518;2023-04-01T16:03:39;14.30;99.90
31809;DHT22;18379;48.208;-1.518;2023-04-01T16:08:59;13.90;99.90
31809;DHT22;18379;48.208;-1.518;2023-04-01T16:14:24;13.30;99.90
31809;DHT22;18379;48.208;-1.518;2023-04-01T16:19:59;13.20;99.90
31809;DHT22;18379;48.208;-1.518;2023-04-01T16:30:43;13.60;99.90
31809;DHT22;18379;48.208;-1.518;2023-04-01T16:41:24;13.50;99.90
31809;DHT22;18379;48.208;-1.518;2023-04-01T16:46:34;13.80;99.90
31809;DHT22;18379;48.208;-1.518;2023-04-01T16:51:54;13.70;99.90
31809;DHT22;18379;48.208;-1.518;2023-04-01T17:02:18;12.90;99.90
31809;DHT22;18379;48.208;-1.518;2023-04-01T17:07:29;12.80;99.90
31809;DHT22;18379;48.208;-1.518;2023-04-01T17:23:18;15.10;99.90
31809;DHT22;18379;48.208;-1.518;2023-04-01T17:39:30;13.30;99.90
31809;DHT22;18379;48.208;-1.518;2023-04-01T18:00:19;12.20;99.90
31809;DHT22;18379;48.208;-1.518;2023-04-01T18:11:16;12.00;99.90
31809;DHT22;18379;48.208;-1.518;2023-04-01T18:21:52;12.00;99.90
31809;DHT22;18379;48.208;-1.518;2023-04-01T18:27:15;11.90;99.90
31809;DHT22;18379;48.208;-1.518;2023-04-01T18:37:22;11.90;99.90
31809;DHT22;18379;48.208;-1.518;2023-04-01T18:53:53;11.70;99.90
31809;DHT22;18379;48.208;-1.518;2023-04-01T19:04:24;11.60;99.90
31809;DHT22;18379;48.208;-1.518;2023-04-01T19:09:32;11.60;99.90
31809;DHT22;18379;48.208;-1.518;2023-04-01T19:20:32;11.60;99.90
31809;DHT22;18379;48.208;-1.518;2023-04-01T19:25:39;11.60;99.90
31809;DHT22;18379;48.208;-1.518;2023-04-01T19:36:13;11.50;99.90
31809;DHT22;18379;48.208;-1.518;2023-04-01T19:46:47;11.50;99.90
31809;DHT22;18379;48.208;-1.518;2023-04-01T19:51:59;11.50;99.90
31809;DHT22;18379;48.208;-1.518;2023-04-01T19:57:05;11.50;99.90
31809;DHT22;18379;48.208;-1.518;2023-04-01T20:02:24;11.50;99.90
31809;DHT22;18379;48.208;-1.518;2023-04-01T20:07:34;11.50;99.90
31809;DHT22;18379;48.208;-1.518;2023-04-01T20:18:03;11.40;99.90
31809;DHT22;18379;48.208;-1.518;2023-04-01T20:23:26;11.50;99.90
31809;DHT22;18379;48.208;-1.518;2023-04-01T20:28:47;11.40;99.90
31809;DHT22;18379;48.208;-1.518;2023-04-01T20:39:45;11.20;99.90
31809;DHT22;18379;48.208;-1.518;2023-04-01T20:55:26;11.10;99.90
31809;DHT22;18379;48.208;-1.518;2023-04-01T21:00:51;11.10;99.90
31809;DHT22;18379;48.208;-1.518;2023-04-01T21:06:14;11.10;99.90
31809;DHT22;18379;48.208;-1.518;2023-04-01T21:11:18;11.10;99.90
31809;DHT22;18379;48.208;-1.518;2023-04-01T21:16:31;11.10;99.90
31809;DHT22;18379;48.208;-1.518;2023-04-01T22:04:45;10.80;99.90
31809;DHT22;18379;48.208;-1.518;2023-04-01T22:09:53;10.70;99.90
31809;DHT22;18379;48.208;-1.518;2023-04-01T22:15:28;10.60;99.90
31809;DHT22;18379;48.208;-1.518;2023-04-01T22:26:27;10.60;99.90
31809;DHT22;18379;48.208;-1.518;2023-04-01T22:31:51;10.60;99.90
31809;DHT22;18379;48.208;-1.518;2023-04-01T22:37:06;10.60;99.90
31809;DHT22;18379;48.208;-1.518;2023-04-01T22:47:40;10.60;99.90
31809;DHT22;18379;48.208;-1.518;2023-04-01T22:52:46;10.40;99.90
31809;DHT22;18379;48.208;-1.518;2023-04-01T22:57:57;10.30;99.90
31809;DHT22;18379;48.208;-1.518;2023-04-01T23:03:14;10.20;99.90
31809;DHT22;18379;48.208;-1.518;2023-04-01T23:25:04;10.10;99.90
31809;DHT22;18379;48.208;-1.518;2023-04-01T23:40:55;10.00;99.90
31809;DHT22;18379;48.208;-1.518;2023-04-01T23:45:56;10.10;99.90
31809;DHT22;18379;48.208;-1.518;2023-04-01T23:50:58;10.10;99.90
31809;DHT22;18379;48.208;-1.518;2023-04-01T23:56:02;10.10;99.90
